Yatesville, Illinois
Current Conditions -  °F | °C
As of 12:15 PM on Thursday 23 Oct 2014 (Local Time) from KIJX Reporting Station
Clear Clear  
Wind Chill: 60°   Ceiling: Unl
Heat Index: 60°   Visibility: 10mi
Dew Point: 45°   Wind: 14mph
Humidity: 56%   Direction: 180°S
Pressure: 30.18"   Gusts: NA
Location:  39.9123°N, 90.0575°W
Report Text: KIJX 231715Z AUTO 18012KT 10SM CLR 16/07 A3018 RMK AO2 T01580070
Loading
Personal Weather Stations






























Interactive Weather Map
Tropical Storm Tracking
New forecast layout! Learn more

10-Day Weather Forecast

Advertisements
Track Severe Weather on mobile